createdAt,value
2023-01-28T00:02:36.399Z,100501.34
2023-01-28T00:05:39.167Z,100495.59
2023-01-28T00:08:42.049Z,100495.03
2023-01-28T00:11:44.727Z,100500.66
2023-01-28T00:14:48.059Z,100513.50
2023-01-28T00:17:50.760Z,100494.78
2023-01-28T00:21:08.039Z,100495.03
2023-01-28T00:24:10.719Z,100507.50
2023-01-28T00:27:13.050Z,100511.25
2023-01-28T00:30:15.801Z,100506.19
2023-01-28T00:33:18.135Z,100513.00
2023-01-28T00:36:24.249Z,100511.69
2023-01-28T00:39:27.374Z,100518.50
2023-01-28T00:42:29.970Z,100506.69
2023-01-28T00:45:32.275Z,100505.41
2023-01-28T00:48:37.369Z,100502.44
2023-01-28T00:51:41.315Z,100525.56
2023-01-28T00:54:43.921Z,100516.97
2023-01-28T00:57:46.253Z,100530.19
2023-01-28T01:00:48.867Z,100519.13
2023-01-28T01:03:57.738Z,100519.63
2023-01-28T01:07:00.443Z,100534.72
2023-01-28T01:10:02.979Z,100518.37
2023-01-28T01:13:07.016Z,100531.38
2023-01-28T01:16:13.148Z,100515.06
2023-01-28T01:19:15.867Z,100526.88
2023-01-28T01:22:18.728Z,100531.19
2023-01-28T01:25:21.618Z,100531.28
2023-01-28T01:28:23.944Z,100529.16
2023-01-28T01:31:28.763Z,100523.66
2023-01-28T01:34:31.195Z,100519.28
2023-01-28T01:37:37.680Z,100530.44
2023-01-28T01:40:39.980Z,100517.94
2023-01-28T01:43:54.883Z,100524.13
2023-01-28T01:46:57.266Z,100524.03
2023-01-28T01:50:12.614Z,100530.44
2023-01-28T01:53:19.012Z,100528.78
2023-01-28T01:56:24.813Z,100519.63
2023-01-28T01:59:30.826Z,100535.69
2023-01-28T02:02:38.256Z,100540.34
2023-01-28T02:05:40.857Z,100532.37
2023-01-28T02:08:45.537Z,100539.75
2023-01-28T02:11:48.572Z,100538.09
2023-01-28T02:15:02.244Z,100530.59
2023-01-28T02:18:04.955Z,100534.19
2023-01-28T02:21:25.457Z,100526.22
2023-01-28T02:24:40.383Z,100532.25
2023-01-28T02:27:54.782Z,100520.94
2023-01-28T02:31:08.221Z,100517.63
2023-01-28T02:34:21.241Z,100528.91
2023-01-28T02:37:38.218Z,100529.03
2023-01-28T02:41:03.760Z,100523.56
2023-01-28T02:44:06.517Z,100527.03
2023-01-28T02:47:29.914Z,100516.53
2023-01-28T02:50:44.920Z,100519.41
2023-01-28T02:53:57.325Z,100527.50
2023-01-28T02:57:16.834Z,100533.81
2023-01-28T03:01:01.794Z,100511.53
2023-01-28T03:04:27.029Z,100522.69
2023-01-28T03:07:32.453Z,100522.47
2023-01-28T03:10:37.154Z,100524.13
2023-01-28T03:13:59.379Z,100515.44
2023-01-28T03:17:26.371Z,100511.03
2023-01-28T03:21:13.133Z,100524.59
2023-01-28T03:24:39.874Z,100531.19
2023-01-28T03:28:12.974Z,100523.03
2023-01-28T03:31:37.856Z,100520.31
2023-01-28T03:34:59.257Z,100520.91
2023-01-28T03:38:18.693Z,100513.16
2023-01-28T03:41:24.021Z,100509.47
2023-01-28T03:44:46.954Z,100517.22
2023-01-28T03:47:49.544Z,100534.72
2023-01-28T03:50:54.704Z,100525.69
2023-01-28T03:53:57.993Z,100535.81
2023-01-28T03:57:00.664Z,100542.47
2023-01-28T04:00:03.613Z,100538.56
2023-01-28T04:03:18.466Z,100524.13
2023-01-28T04:06:21.295Z,100528.91
2023-01-28T04:09:24.977Z,100529.25
2023-01-28T04:12:28.331Z,100536.03
2023-01-28T04:15:31.128Z,100541.31
2023-01-28T04:18:34.874Z,100524.13
2023-01-28T04:21:38.099Z,100525.31
2023-01-28T04:24:41.020Z,100546.06
2023-01-28T04:27:44.096Z,100546.28
2023-01-28T04:30:47.452Z,100549.53
2023-01-28T04:33:50.809Z,100540.34
2023-01-28T04:36:54.986Z,100558.25
2023-01-28T04:39:57.433Z,100533.44
2023-01-28T04:43:03.433Z,100549.75
2023-01-28T04:46:06.387Z,100553.59
2023-01-28T04:49:09.120Z,100544.53
2023-01-28T04:52:14.301Z,100558.97
2023-01-28T04:55:17.743Z,100540.38
2023-01-28T04:58:22.258Z,100551.94
2023-01-28T05:01:26.218Z,100549.81
2023-01-28T05:04:28.876Z,100555.53
2023-01-28T05:07:31.740Z,100562.44
2023-01-28T05:10:34.291Z,100568.03
2023-01-28T05:13:37.060Z,100573.28
2023-01-28T05:16:40.284Z,100571.34
2023-01-28T05:19:43.812Z,100575.53
2023-01-28T05:22:48.067Z,100562.91
2023-01-28T05:25:50.853Z,100588.31
2023-01-28T05:28:53.411Z,100584.50
2023-01-28T05:31:56.034Z,100591.44
2023-01-28T05:34:59.095Z,100578.91
2023-01-28T05:38:01.835Z,100572.34
2023-01-28T05:41:04.334Z,100573.41
2023-01-28T05:44:07.553Z,100589.50
2023-01-28T05:47:10.124Z,100589.50
2023-01-28T05:50:14.832Z,100597.84
2023-01-28T05:53:18.496Z,100577.94
2023-01-28T05:56:21.316Z,100593.44
2023-01-28T05:59:25.184Z,100595.31
2023-01-28T06:02:28.529Z,100601.69
2023-01-28T06:05:31.560Z,100608.22
2023-01-28T06:08:34.475Z,100605.00
2023-01-28T06:11:37.160Z,100612.66
2023-01-28T06:14:39.803Z,100605.16
2023-01-28T06:17:42.630Z,100614.44
2023-01-28T06:20:50.027Z,100608.88
2023-01-28T06:23:52.745Z,100619.59
2023-01-28T06:26:55.136Z,100624.47
2023-01-28T06:29:57.731Z,100627.94
2023-01-28T06:33:00.051Z,100629.63
2023-01-28T06:36:04.526Z,100628.44
2023-01-28T06:39:06.947Z,100637.25
2023-01-28T06:42:09.615Z,100643.44
2023-01-28T06:45:12.334Z,100643.94
2023-01-28T06:48:15.061Z,100651.91
2023-01-28T06:51:17.387Z,100649.88
2023-01-28T06:54:20.141Z,100663.84
2023-01-28T06:57:22.474Z,100666.22
2023-01-28T07:00:25.786Z,100664.44
2023-01-28T07:03:28.619Z,100653.94
2023-01-28T07:06:31.317Z,100674.09
2023-01-28T07:09:33.653Z,100679.47
2023-01-28T07:12:36.328Z,100680.03
2023-01-28T07:15:38.669Z,100681.13
2023-01-28T07:18:41.402Z,100692.56
2023-01-28T07:21:43.738Z,100681.84
2023-01-28T07:24:46.564Z,100698.91
2023-01-28T07:27:53.648Z,100704.03
2023-01-28T07:30:56.692Z,100700.94
2023-01-28T07:33:59.202Z,100706.66
2023-01-28T07:40:05.091Z,100710.22
2023-01-28T07:43:08.806Z,100707.84
2023-01-28T07:46:11.612Z,100699.25
2023-01-28T07:49:15.049Z,100712.50
2023-01-28T07:52:17.397Z,100717.06
2023-01-28T07:55:20.043Z,100706.44
2023-01-28T07:58:22.450Z,100717.63
2023-01-28T08:01:25.230Z,100714.53
2023-01-28T08:04:28.043Z,100718.94
2023-01-28T08:07:30.471Z,100703.31
2023-01-28T08:10:33.159Z,100720.72
2023-01-28T08:13:35.794Z,100730.25
2023-01-28T08:16:38.431Z,100739.56
2023-01-28T08:19:40.734Z,100714.03
2023-01-28T08:22:43.335Z,100734.19
2023-01-28T08:25:46.640Z,100745.28
2023-01-28T08:28:51.314Z,100731.13
2023-01-28T08:31:54.028Z,100737.31
2023-01-28T08:34:57.078Z,100741.25
2023-01-28T08:38:00.908Z,100735.53
2023-01-28T08:41:03.589Z,100750.56
2023-01-28T08:44:05.981Z,100741.97
2023-01-28T08:47:08.717Z,100742.69
2023-01-28T08:50:11.131Z,100753.44
2023-01-28T08:53:19.245Z,100752.00
2023-01-28T08:56:21.617Z,100745.91
2023-01-28T08:59:26.572Z,100756.75
2023-01-28T09:02:31.753Z,100767.75
2023-01-28T09:05:35.884Z,100758.19
2023-01-28T09:08:38.447Z,100768.22
2023-01-28T09:11:41.108Z,100763.69
2023-01-28T09:14:43.509Z,100767.50
2023-01-28T09:17:46.295Z,100770.38
2023-01-28T09:20:48.775Z,100761.78
2023-01-28T09:23:51.858Z,100774.56
2023-01-28T09:26:54.579Z,100776.84
2023-01-28T09:29:57.399Z,100786.63
2023-01-28T09:32:59.775Z,100777.31
2023-01-28T09:36:04.501Z,100769.56
2023-01-28T09:39:08.332Z,100778.03
2023-01-28T09:42:40.586Z,100778.41
2023-01-28T09:45:47.641Z,100789.00
2023-01-28T09:48:53.585Z,100772.75
2023-01-28T09:51:56.865Z,100768.34
2023-01-28T09:55:13.497Z,100783.88
2023-01-28T09:58:17.990Z,100775.75
2023-01-28T10:01:38.714Z,100765.13
2023-01-28T10:04:56.730Z,100776.47
2023-01-28T10:08:18.905Z,100774.06
2023-01-28T10:11:43.457Z,100759.63
2023-01-28T10:15:04.429Z,100765.00
2023-01-28T10:18:17.486Z,100766.41
2023-01-28T10:21:45.185Z,100753.03
2023-01-28T10:24:57.580Z,100766.16
2023-01-28T10:28:01.427Z,100753.88
2023-01-28T10:31:12.640Z,100757.16
2023-01-28T10:34:15.173Z,100755.00
2023-01-28T10:37:17.792Z,100758.28
2023-01-28T10:40:20.361Z,100770.09
2023-01-28T10:43:26.150Z,100764.41
2023-01-28T10:46:33.276Z,100764.31
2023-01-28T10:49:43.924Z,100754.97
2023-01-28T10:52:58.252Z,100774.28
2023-01-28T10:56:02.699Z,100765.31
2023-01-28T10:59:07.048Z,100767.00
2023-01-28T11:02:22.827Z,100766.53
2023-01-28T11:05:28.392Z,100765.87
2023-01-28T11:08:31.861Z,100764.81
2023-01-28T11:11:34.275Z,100765.84
2023-01-28T11:14:36.926Z,100768.34
2023-01-28T11:17:39.509Z,100758.09
2023-01-28T11:20:49.253Z,100760.00
2023-01-28T11:23:59.075Z,100750.84
2023-01-28T11:27:22.552Z,100741.03
2023-01-28T11:30:40.187Z,100748.63
2023-01-28T11:33:50.511Z,100748.47
2023-01-28T11:37:16.354Z,100754.44
2023-01-28T11:40:23.471Z,100747.81
2023-01-28T11:43:29.156Z,100743.38
2023-01-28T11:47:00.861Z,100743.38
2023-01-28T11:50:31.265Z,100743.13
2023-01-28T11:54:19.244Z,100740.47
2023-01-28T11:57:24.399Z,100743.22
2023-01-28T12:01:08.136Z,100727.28
2023-01-28T12:04:26.544Z,100737.22
2023-01-28T12:07:54.572Z,100731.72
2023-01-28T12:11:19.391Z,100734.72
2023-01-28T12:14:35.024Z,100732.28
2023-01-28T12:18:11.823Z,100720.69
2023-01-28T12:21:23.355Z,100732.69
2023-01-28T12:24:43.877Z,100725.03
2023-01-28T12:28:15.608Z,100720.19
2023-01-28T12:31:43.019Z,100713.69
2023-01-28T12:35:12.310Z,100724.00
2023-01-28T12:38:21.030Z,100720.50
2023-01-28T12:41:34.295Z,100723.25
2023-01-28T12:44:51.814Z,100724.59
2023-01-28T12:48:00.895Z,100724.34
2023-01-28T12:51:22.689Z,100722.75
2023-01-28T12:54:38.372Z,100721.13
2023-01-28T12:57:41.632Z,100723.31
2023-01-28T13:00:50.419Z,100729.16
2023-01-28T13:04:12.117Z,100724.16
2023-01-28T13:07:35.346Z,100730.56
2023-01-28T13:10:44.249Z,100718.84
2023-01-28T13:13:47.351Z,100739.63
2023-01-28T13:16:49.964Z,100740.53
2023-01-28T13:19:52.492Z,100747.41
2023-01-28T13:23:02.089Z,100745.63
2023-01-28T13:26:20.029Z,100735.78
2023-01-28T13:29:25.683Z,100749.81
2023-01-28T13:32:32.062Z,100740.81
2023-01-28T13:35:37.840Z,100751.53
2023-01-28T13:38:40.393Z,100755.03
2023-01-28T13:41:55.095Z,100754.06
2023-01-28T13:45:19.459Z,100766.25
2023-01-28T13:48:44.776Z,100756.41
2023-01-28T13:52:09.256Z,100769.22
2023-01-28T13:55:11.864Z,100767.81
2023-01-28T13:58:25.798Z,100779.78
2023-01-28T14:01:39.002Z,100764.97
2023-01-28T14:05:06.677Z,100780.94
2023-01-28T14:08:29.871Z,100768.16
2023-01-28T14:11:47.101Z,100781.50
2023-01-28T14:15:25.868Z,100773.56
2023-01-28T14:18:35.691Z,100781.09
2023-01-28T14:21:38.557Z,100797.13
2023-01-28T14:24:41.283Z,100781.50
2023-01-28T14:27:48.110Z,100791.09
2023-01-28T14:30:56.609Z,100793.03
2023-01-28T14:34:11.056Z,100797.59
2023-01-28T14:37:17.959Z,100806.69
2023-01-28T14:40:21.489Z,100796.63
2023-01-28T14:43:27.139Z,100802.47
2023-01-28T14:46:45.830Z,100800.34
2023-01-28T14:50:25.909Z,100800.94
2023-01-28T14:53:49.615Z,100814.94
2023-01-28T14:57:26.491Z,100812.19
2023-01-28T15:00:31.728Z,100823.94
2023-01-28T15:03:35.565Z,100813.19
2023-01-28T15:06:38.007Z,100813.00
2023-01-28T15:09:40.845Z,100814.34
2023-01-28T15:12:48.593Z,100813.31
2023-01-28T15:15:58.039Z,100827.34
2023-01-28T15:19:01.811Z,100827.44
2023-01-28T15:22:07.333Z,100835.88
2023-01-28T15:25:22.019Z,100836.91
2023-01-28T15:28:31.313Z,100853.56
2023-01-28T15:31:39.023Z,100843.13
2023-01-28T15:34:46.378Z,100845.72
2023-01-28T15:41:01.785Z,100843.97
2023-01-28T15:44:04.391Z,100847.19
2023-01-28T15:47:17.657Z,100861.31
2023-01-28T15:50:26.477Z,100867.53
2023-01-28T15:53:51.170Z,100871.94
2023-01-28T15:56:53.467Z,100879.03
2023-01-28T16:00:14.973Z,100881.63
2023-01-28T16:03:21.977Z,100869.94
2023-01-28T16:06:31.507Z,100872.59
2023-01-28T16:09:35.527Z,100889.78
2023-01-28T16:12:37.946Z,100895.00
2023-01-28T16:15:47.256Z,100896.56
2023-01-28T16:18:55.870Z,100906.75
2023-01-28T16:21:58.958Z,100901.84
2023-01-28T16:25:02.039Z,100903.50
2023-01-28T16:28:20.237Z,100912.84
2023-01-28T16:31:23.070Z,100910.09
2023-01-28T16:34:27.599Z,100910.47
2023-01-28T16:37:30.332Z,100924.78
2023-01-28T16:40:34.783Z,100920.25
2023-01-28T16:43:37.164Z,100930.66
2023-01-28T16:46:40.082Z,100931.13
2023-01-28T16:49:42.498Z,100919.28
2023-01-28T16:52:47.971Z,100932.31
2023-01-28T16:55:51.399Z,100936.38
2023-01-28T16:58:54.395Z,100931.38
2023-01-28T17:01:56.771Z,100931.25
2023-01-28T17:04:59.515Z,100932.44
2023-01-28T17:08:01.877Z,100921.09
2023-01-28T17:11:04.587Z,100916.31
2023-01-28T17:14:07.001Z,100937.09
2023-01-28T17:17:09.744Z,100942.69
2023-01-28T17:20:12.379Z,100942.44
2023-01-28T17:23:23.726Z,100943.16
2023-01-28T17:26:26.607Z,100948.91
2023-01-28T17:29:29.296Z,100956.69
2023-01-28T17:32:31.640Z,100944.59
2023-01-28T17:35:35.526Z,100946.75
2023-01-28T17:38:38.273Z,100962.19
2023-01-28T17:41:40.854Z,100966.56
2023-01-28T17:44:43.494Z,100977.22
2023-01-28T17:47:46.201Z,100971.59
2023-01-28T17:50:48.577Z,100975.41
2023-01-28T17:53:53.181Z,100974.59
2023-01-28T17:56:56.076Z,100978.12
2023-01-28T17:59:58.702Z,100970.50
2023-01-28T18:03:01.036Z,100985.06
2023-01-28T18:06:07.332Z,100975.38
2023-01-28T18:09:10.046Z,100976.09
2023-01-28T18:12:16.051Z,100982.91
2023-01-28T18:15:18.672Z,100986.34
2023-01-28T18:18:21.295Z,100987.91
2023-01-28T18:21:51.736Z,100989.09
2023-01-28T18:24:55.205Z,100994.00
2023-01-28T18:27:57.508Z,100997.97
2023-01-28T18:31:08.518Z,101007.25
2023-01-28T18:34:10.837Z,101007.25
2023-01-28T18:37:13.525Z,101006.53
2023-01-28T18:40:15.973Z,101011.66
2023-01-28T18:43:18.595Z,101012.81
2023-01-28T18:46:20.950Z,101010.06
2023-01-28T18:49:23.629Z,101015.00
2023-01-28T18:52:25.979Z,101006.03
2023-01-28T18:55:29.160Z,101017.53
2023-01-28T18:58:32.214Z,101025.50
2023-01-28T19:01:35.213Z,101028.38
2023-01-28T19:04:37.598Z,101018.09
2023-01-28T19:07:40.252Z,101029.75
2023-01-28T19:10:42.738Z,101022.75
2023-01-28T19:13:45.455Z,101026.53
2023-01-28T19:16:47.869Z,101033.47
2023-01-28T20:48:14.777Z,101085.34
2023-01-28T20:51:20.402Z,101085.78
2023-01-28T20:54:22.978Z,101103.25
2023-01-28T20:57:25.761Z,101088.28
2023-01-28T21:00:28.248Z,101087.31
2023-01-28T21:03:31.080Z,101111.34
2023-01-28T21:06:33.530Z,101090.03
2023-01-28T21:09:36.114Z,101102.97
2023-01-28T21:12:38.554Z,101104.19
2023-01-28T21:15:50.559Z,101119.88
2023-01-28T21:18:53.039Z,101113.69
2023-01-28T21:21:55.640Z,101130.31
2023-01-28T21:24:58.014Z,101128.44
2023-01-28T21:28:00.663Z,101107.84
2023-01-28T21:31:06.308Z,101132.09
2023-01-28T21:34:10.016Z,101131.78
2023-01-28T21:37:12.432Z,101117.63
2023-01-28T21:40:15.515Z,101114.41
2023-01-28T21:43:18.251Z,101134.41
2023-01-28T21:46:29.057Z,101137.88
2023-01-28T21:49:31.479Z,101135.63
2023-01-28T21:52:34.092Z,101134.22
2023-01-28T21:55:36.422Z,101136.50
2023-01-28T21:58:57.483Z,101130.31
2023-01-28T22:02:05.380Z,101132.56
2023-01-28T22:05:08.176Z,101130.88
2023-01-28T22:08:10.590Z,101134.69
2023-01-28T22:11:13.282Z,101120.53
2023-01-28T22:14:15.841Z,101144.84
2023-01-28T22:17:19.256Z,101141.25
2023-01-28T22:20:21.693Z,101149.09
2023-01-28T22:23:24.468Z,101142.78
2023-01-28T22:26:26.852Z,101117.97
2023-01-28T22:29:29.510Z,101124.16
2023-01-28T22:32:31.911Z,101120.72
2023-01-28T22:35:34.674Z,101134.22
2023-01-28T22:38:39.243Z,101142.63
2023-01-28T22:41:42.861Z,101135.31
2023-01-28T22:44:45.280Z,101126.91
2023-01-28T22:47:47.927Z,101150.22
2023-01-28T22:50:50.261Z,101143.75
2023-01-28T22:53:53.718Z,101147.56
2023-01-28T22:56:56.130Z,101153.66
2023-01-28T23:00:00.650Z,101158.31
2023-01-28T23:03:03.425Z,101168.63
2023-01-28T23:06:06.214Z,101135.53
2023-01-28T23:09:08.629Z,101165.19
2023-01-28T23:12:11.556Z,101143.75
2023-01-28T23:15:32.955Z,101166.41
2023-01-28T23:18:55.305Z,101167.25
2023-01-28T23:22:16.251Z,101147.81
2023-01-28T23:25:20.096Z,101166.88
2023-01-28T23:28:22.442Z,101171.16
2023-01-28T23:31:25.362Z,101177.53
2023-01-28T23:34:44.390Z,101175.03
2023-01-28T23:37:47.987Z,101167.88
2023-01-28T23:40:50.367Z,101183.66
2023-01-28T23:43:52.989Z,101172.13
2023-01-28T23:46:56.512Z,101155.34
2023-01-28T23:49:59.378Z,101170.81
2023-01-28T23:53:01.821Z,101176.78
2023-01-28T23:56:08.080Z,101177.81
2023-01-28T23:59:10.424Z,101159.78
